Time;durP1;ratioP1;P1;durP2;ratioP2;P2;SDS_P1;SDS_P2;PMS_P1;PMS_P2;Temp;Humidity;BMP_temperature;BMP_pressure;BME280_temperature;BME280_humidity;BME280_pressure;Samples;Min_cycle;Max_cycle;Signal;HPM_P1;HPM_P2
2021/01/19 00:00:37;;;;;;;2.23;2.03;;;2.70;99.90;;;;;;4965794;28;20212;-78
2021/01/19 00:03:02;;;;;;;1.97;1.80;;;2.70;99.90;;;;;;4967388;28;20260;-78
2021/01/19 00:05:28;;;;;;;1.50;1.40;;;2.80;99.90;;;;;;4966328;28;20297;-78
2021/01/19 00:07:54;;;;;;;2.53;2.27;;;2.70;99.90;;;;;;4965924;28;20802;-78
2021/01/19 00:10:19;;;;;;;1.47;1.37;;;2.70;99.90;;;;;;4965830;28;20233;-78
2021/01/19 00:12:45;;;;;;;2.83;2.33;;;2.70;99.90;;;;;;4966557;28;20185;-78
2021/01/19 00:15:11;;;;;;;3.13;2.50;;;2.70;99.90;;;;;;4964896;28;20181;-78
2021/01/19 00:17:37;;;;;;;2.47;2.20;;;2.70;99.90;;;;;;4965635;28;20809;-78
2021/01/19 00:20:05;;;;;;;2.83;2.20;;;2.70;99.90;;;;;;4965597;28;20240;-78
2021/01/19 00:22:32;;;;;;;2.93;2.27;;;2.70;99.90;;;;;;4966445;28;20181;-78
2021/01/19 00:24:58;;;;;;;2.77;2.07;;;2.60;99.90;;;;;;4966566;28;20620;-78
2021/01/19 00:27:24;;;;;;;2.23;2.03;;;2.60;99.90;;;;;;4966497;28;20195;-78
2021/01/19 00:29:50;;;;;;;1.83;1.60;;;2.60;99.90;;;;;;4966072;28;20205;-77
2021/01/19 00:32:15;;;;;;;4.87;2.77;;;2.70;99.90;;;;;;4966474;28;20177;-78
2021/01/19 00:34:41;;;;;;;1.93;1.60;;;2.70;99.90;;;;;;4966381;28;20191;-78
2021/01/19 00:37:06;;;;;;;2.03;1.53;;;2.70;99.90;;;;;;4966636;28;20277;-77
2021/01/19 00:39:32;;;;;;;2.33;1.90;;;2.80;99.90;;;;;;4965567;28;20189;-78
2021/01/19 00:41:57;;;;;;;2.17;1.97;;;2.80;99.90;;;;;;4965996;28;20176;-78
2021/01/19 00:44:23;;;;;;;2.03;1.30;;;2.80;99.90;;;;;;4965765;28;20177;-78
2021/01/19 00:46:50;;;;;;;2.17;1.90;;;2.80;99.90;;;;;;4966154;28;20189;-78
2021/01/19 00:49:16;;;;;;;1.47;1.20;;;2.80;99.90;;;;;;4964245;28;20188;-78
2021/01/19 00:51:41;;;;;;;1.60;1.50;;;2.80;99.90;;;;;;4965330;28;20205;-78
2021/01/19 00:54:07;;;;;;;2.27;1.40;;;2.80;99.90;;;;;;4965854;28;20691;-78
2021/01/19 00:56:40;;;;;;;1.40;1.17;;;2.70;99.90;;;;;;4964627;28;20625;-78
2021/01/19 00:59:06;;;;;;;1.80;1.70;;;2.80;99.90;;;;;;4965558;28;20180;-78
2021/01/19 01:01:33;;;;;;;2.00;1.70;;;2.70;99.90;;;;;;4965332;28;20205;-77
2021/01/19 01:03:58;;;;;;;2.63;1.83;;;2.60;99.90;;;;;;4966209;28;20177;-78
2021/01/19 01:06:24;;;;;;;1.43;1.23;;;2.60;99.90;;;;;;4964646;28;20208;-79
2021/01/19 01:08:50;;;;;;;1.37;1.27;;;2.70;99.90;;;;;;4965807;28;20260;-78
2021/01/19 01:11:16;;;;;;;2.70;2.27;;;2.50;99.90;;;;;;4965780;28;20212;-78
2021/01/19 01:13:42;;;;;;;2.97;2.33;;;2.50;99.90;;;;;;4965716;28;20181;-78
2021/01/19 01:16:12;;;;;;;2.30;2.03;;;2.50;99.90;;;;;;4966898;28;20251;-78
2021/01/19 01:18:38;;;;;;;3.67;2.00;;;2.50;99.90;;;;;;4956685;28;20276;-78
2021/01/19 01:21:04;;;;;;;2.47;1.70;;;2.70;99.90;;;;;;4966109;28;20315;-78
2021/01/19 01:23:30;;;;;;;2.87;2.30;;;2.70;99.90;;;;;;4964819;28;20197;-78
2021/01/19 01:25:55;;;;;;;5.10;2.07;;;2.80;99.90;;;;;;4966040;28;20771;-77
2021/01/19 01:28:21;;;;;;;2.27;1.77;;;2.80;99.90;;;;;;4966489;28;20269;-78
2021/01/19 01:30:46;;;;;;;2.20;2.00;;;2.80;99.90;;;;;;4968105;28;20205;-78
2021/01/19 01:33:12;;;;;;;2.00;1.73;;;3.00;99.90;;;;;;4968917;28;20181;-78
2021/01/19 01:35:38;;;;;;;2.20;1.97;;;2.90;99.90;;;;;;4969830;28;20200;-78
2021/01/19 01:38:03;;;;;;;1.97;1.80;;;2.90;99.90;;;;;;4969727;28;20215;-78
2021/01/19 01:40:29;;;;;;;3.13;1.83;;;3.00;99.90;;;;;;4969125;28;20232;-78
2021/01/19 01:42:56;;;;;;;1.97;1.83;;;3.00;99.90;;;;;;4970049;28;20655;-78
2021/01/19 01:45:23;;;;;;;2.57;1.57;;;3.00;99.90;;;;;;4969849;28;20308;-78
2021/01/19 01:47:50;;;;;;;3.63;1.83;;;3.10;99.90;;;;;;4969734;28;20195;-77
2021/01/19 01:50:17;;;;;;;2.17;1.87;;;3.00;99.90;;;;;;4969743;28;20543;-77
2021/01/19 01:52:42;;;;;;;2.50;1.57;;;3.10;99.90;;;;;;4969928;28;20181;-77
2021/01/19 01:55:09;;;;;;;1.87;1.50;;;3.10;99.90;;;;;;4968967;28;20639;-78
2021/01/19 01:57:37;;;;;;;2.77;2.00;;;3.10;99.90;;;;;;4969503;28;20188;-78
2021/01/19 02:00:06;;;;;;;2.40;2.00;;;3.10;99.90;;;;;;4969457;28;20212;-78
2021/01/19 02:02:33;;;;;;;1.63;1.30;;;3.10;99.90;;;;;;4968444;28;20188;-79
2021/01/19 02:04:59;;;;;;;2.40;1.83;;;3.20;99.90;;;;;;4969025;28;21405;-78
2021/01/19 02:07:29;;;;;;;2.20;1.53;;;3.20;99.90;;;;;;4970952;28;20176;-77
2021/01/19 02:10:13;;;;;;;1.97;1.60;;;3.20;99.90;;;;;;4984729;28;20201;-76
2021/01/19 02:12:51;;;;;;;1.23;0.87;;;3.20;99.90;;;;;;4969050;28;20189;-77
2021/01/19 02:15:28;;;;;;;1.63;1.43;;;3.10;99.90;;;;;;4970350;28;21169;-77
2021/01/19 02:18:05;;;;;;;1.50;1.30;;;3.10;99.90;;;;;;4970463;28;20642;-78
2021/01/19 02:20:47;;;;;;;1.67;1.57;;;3.20;99.90;;;;;;4970195;28;20205;-80
2021/01/19 02:23:30;;;;;;;1.67;1.57;;;3.20;99.90;;;;;;4968531;28;20723;-79
2021/01/19 02:26:18;;;;;;;2.17;1.50;;;3.20;99.90;;;;;;4975729;28;20212;-80
2021/01/19 02:28:58;;;;;;;1.93;1.33;;;3.10;99.90;;;;;;4959926;28;20348;-77
2021/01/19 02:31:41;;;;;;;1.93;1.70;;;3.10;99.90;;;;;;4970085;28;20225;-77
2021/01/19 02:34:23;;;;;;;1.67;1.40;;;3.20;99.90;;;;;;4961784;28;20173;-80
2021/01/19 02:36:58;;;;;;;1.57;1.27;;;3.30;99.90;;;;;;4970065;28;20613;-79
2021/01/19 02:39:37;;;;;;;1.53;1.30;;;3.30;99.90;;;;;;4968423;28;20176;-78
2021/01/19 02:42:08;;;;;;;2.00;1.40;;;3.30;99.90;;;;;;4968089;28;20271;-78
2021/01/19 02:44:37;;;;;;;1.37;1.23;;;3.30;99.90;;;;;;4984621;28;20209;-77
2021/01/19 02:47:04;;;;;;;1.53;1.23;;;3.30;99.90;;;;;;4970352;28;20204;-77
2021/01/19 02:49:29;;;;;;;1.43;1.33;;;3.30;99.90;;;;;;4970593;28;20216;-76
2021/01/19 02:51:58;;;;;;;1.57;1.30;;;3.30;99.90;;;;;;4970067;28;20200;-79
2021/01/19 02:54:24;;;;;;;2.77;2.03;;;3.30;99.90;;;;;;4969861;28;20181;-77
2021/01/19 02:56:52;;;;;;;2.13;1.93;;;3.40;99.90;;;;;;4970283;28;20187;-78
2021/01/19 02:59:39;;;;;;;1.33;1.23;;;3.30;99.90;;;;;;4961132;28;20219;-78
2021/01/19 03:02:11;;;;;;;5.13;1.73;;;3.20;99.90;;;;;;4960565;28;20188;-77
2021/01/19 03:04:38;;;;;;;4.63;2.13;;;3.30;99.90;;;;;;4968144;28;20259;-77
2021/01/19 03:07:08;;;;;;;1.63;1.50;;;3.30;99.90;;;;;;4960521;28;20205;-79
2021/01/19 03:09:42;;;;;;;1.63;1.30;;;3.30;99.90;;;;;;4968435;28;20188;-77
2021/01/19 03:12:12;;;;;;;1.87;1.77;;;3.40;99.90;;;;;;4969840;28;20185;-77
2021/01/19 03:14:38;;;;;;;1.80;1.17;;;3.40;99.90;;;;;;4968475;28;20385;-76
2021/01/19 03:17:08;;;;;;;1.20;1.10;;;3.40;99.90;;;;;;4969451;28;20189;-78
2021/01/19 03:19:44;;;;;;;1.60;1.50;;;3.50;99.90;;;;;;4969402;28;20197;-78
2021/01/19 03:22:10;;;;;;;1.40;1.17;;;3.40;99.90;;;;;;4970109;28;20204;-78
2021/01/19 03:24:39;;;;;;;1.20;1.10;;;3.50;99.90;;;;;;4968305;28;20704;-79
2021/01/19 03:27:06;;;;;;;0.93;0.90;;;3.40;99.90;;;;;;4970377;28;20201;-79
2021/01/19 03:29:31;;;;;;;1.30;1.10;;;3.50;99.90;;;;;;4969293;28;20185;-77
2021/01/19 03:31:57;;;;;;;2.07;1.47;;;3.50;99.90;;;;;;4969746;28;20177;-79
2021/01/19 03:34:22;;;;;;;1.17;1.07;;;3.50;99.90;;;;;;4967903;28;20216;-78
2021/01/19 03:36:48;;;;;;;0.93;0.87;;;3.50;99.90;;;;;;4970179;28;21185;-79
2021/01/19 03:39:14;;;;;;;3.30;1.53;;;3.50;99.90;;;;;;4970093;28;20173;-78
2021/01/19 03:41:40;;;;;;;1.30;1.13;;;3.60;99.90;;;;;;4968407;28;20307;-79
2021/01/19 03:44:06;;;;;;;0.93;0.83;;;3.50;99.90;;;;;;4967946;28;20185;-76
2021/01/19 03:46:32;;;;;;;1.47;1.37;;;3.50;99.90;;;;;;4967839;28;20213;-77
2021/01/19 03:48:58;;;;;;;1.13;1.03;;;3.50;99.90;;;;;;4969720;28;20180;-78
2021/01/19 03:51:24;;;;;;;1.30;1.07;;;3.50;99.90;;;;;;4969474;28;20340;-80
2021/01/19 03:53:50;;;;;;;1.37;1.10;;;3.50;99.90;;;;;;4969651;28;20251;-78
2021/01/19 03:56:16;;;;;;;1.10;0.93;;;3.50;99.90;;;;;;4968161;28;20197;-78
2021/01/19 03:58:41;;;;;;;1.77;1.10;;;3.50;99.90;;;;;;4967919;28;20275;-78
2021/01/19 04:01:07;;;;;;;0.67;0.67;;;3.50;99.90;;;;;;4967950;28;20200;-78
2021/01/19 04:03:32;;;;;;;0.77;0.70;;;3.60;99.90;;;;;;4967574;28;20304;-80
2021/01/19 04:05:58;;;;;;;1.17;0.70;;;3.50;99.90;;;;;;4976336;28;20208;-78
2021/01/19 04:08:24;;;;;;;0.50;0.50;;;3.60;99.90;;;;;;4969883;28;20189;-77
2021/01/19 04:10:49;;;;;;;0.77;0.77;;;3.70;99.90;;;;;;4968366;28;20213;-76
2021/01/19 04:13:16;;;;;;;0.90;0.70;;;3.60;99.90;;;;;;4970401;28;20258;-77
2021/01/19 04:15:42;;;;;;;0.90;0.70;;;3.60;99.90;;;;;;4969974;28;20742;-76
2021/01/19 04:18:07;;;;;;;0.70;0.70;;;3.60;99.90;;;;;;4969166;28;20192;-80
2021/01/19 04:20:33;;;;;;;0.93;0.93;;;3.60;99.90;;;;;;4969612;28;20370;-78
2021/01/19 04:22:59;;;;;;;0.90;0.77;;;3.50;99.90;;;;;;4969461;28;20187;-77
2021/01/19 04:25:25;;;;;;;0.50;0.50;;;3.60;99.90;;;;;;4968730;28;20223;-77
2021/01/19 04:27:51;;;;;;;0.70;0.70;;;3.60;99.90;;;;;;4967463;28;20194;-77
2021/01/19 04:30:17;;;;;;;0.60;0.60;;;3.70;99.90;;;;;;4970852;28;20204;-79
2021/01/19 04:32:45;;;;;;;0.70;0.70;;;3.60;99.90;;;;;;4970058;28;20228;-79
2021/01/19 04:35:10;;;;;;;0.80;0.80;;;3.60;99.90;;;;;;4969616;28;20180;-79
2021/01/19 04:37:36;;;;;;;1.00;0.90;;;3.60;99.90;;;;;;4971550;28;20782;-78
2021/01/19 04:40:04;;;;;;;0.77;0.77;;;3.70;99.90;;;;;;4967591;28;20215;-79
2021/01/19 04:42:34;;;;;;;1.30;0.87;;;3.70;99.90;;;;;;4966770;28;20247;-79
2021/01/19 04:45:05;;;;;;;0.50;0.47;;;3.80;99.90;;;;;;4966023;28;20300;-79
2021/01/19 04:47:35;;;;;;;1.23;1.13;;;3.80;99.90;;;;;;4966048;28;20196;-79
2021/01/19 04:50:09;;;;;;;0.83;0.77;;;3.80;99.90;;;;;;4960504;28;20197;-76
2021/01/19 04:52:38;;;;;;;1.03;1.00;;;3.80;99.90;;;;;;4986099;28;20230;-75
2021/01/19 04:55:12;;;;;;;1.33;1.03;;;3.80;99.90;;;;;;4975680;28;20268;-76
2021/01/19 04:57:40;;;;;;;1.20;0.87;;;3.80;99.90;;;;;;4972538;28;20259;-78
2021/01/19 05:00:07;;;;;;;1.20;1.00;;;3.70;99.90;;;;;;4957901;28;20219;-76
2021/01/19 05:03:00;;;;;;;0.70;0.70;;;3.80;99.90;;;;;;4958864;28;20307;-79
2021/01/19 05:05:38;;;;;;;0.57;0.57;;;3.70;99.90;;;;;;4968746;28;20208;-75
2021/01/19 05:08:16;;;;;;;1.20;0.77;;;3.70;99.90;;;;;;4970283;28;20177;-78
2021/01/19 05:10:48;;;;;;;0.60;0.60;;;3.80;99.90;;;;;;4962342;28;20200;-76
2021/01/19 05:13:14;;;;;;;0.50;0.50;;;3.80;99.90;;;;;;4960091;28;20702;-76
2021/01/19 05:15:48;;;;;;;0.60;0.60;;;3.80;99.90;;;;;;4969619;28;20189;-77
2021/01/19 05:18:16;;;;;;;1.07;1.00;;;3.60;99.90;;;;;;4970225;28;20185;-77
2021/01/19 05:20:49;;;;;;;0.67;0.50;;;3.60;99.90;;;;;;4976675;28;20301;-78
2021/01/19 05:23:22;;;;;;;0.90;0.50;;;3.60;99.90;;;;;;4970240;28;20259;-79
2021/01/19 05:25:52;;;;;;;0.70;0.70;;;3.50;99.90;;;;;;4970122;28;20240;-77
2021/01/19 05:28:19;;;;;;;0.40;0.40;;;3.50;99.90;;;;;;4967193;28;20177;-78
2021/01/19 05:30:52;;;;;;;0.70;0.60;;;3.50;99.90;;;;;;4970243;28;20260;-76
2021/01/19 05:33:17;;;;;;;0.50;0.50;;;3.60;99.90;;;;;;4968836;28;20662;-76
2021/01/19 05:35:43;;;;;;;0.60;0.60;;;3.60;99.90;;;;;;4968754;28;20192;-77
2021/01/19 05:38:08;;;;;;;0.53;0.53;;;3.60;99.90;;;;;;4970099;28;20550;-77
2021/01/19 05:40:44;;;;;;;0.33;0.33;;;3.60;99.90;;;;;;4969111;28;20204;-78
2021/01/19 05:43:11;;;;;;;0.40;0.40;;;3.70;99.90;;;;;;4959934;28;20227;-78
2021/01/19 05:45:48;;;;;;;0.60;0.60;;;3.50;99.90;;;;;;4970170;28;20236;-78
2021/01/19 05:48:15;;;;;;;0.73;0.57;;;3.40;99.90;;;;;;4968779;28;20216;-76
2021/01/19 05:50:41;;;;;;;0.70;0.63;;;3.40;99.90;;;;;;4968343;28;20266;-81
2021/01/19 05:53:15;;;;;;;0.70;0.70;;;3.30;99.90;;;;;;4969952;28;20208;-77
2021/01/19 05:55:42;;;;;;;0.80;0.50;;;3.40;99.90;;;;;;4970139;28;20240;-77
2021/01/19 05:58:15;;;;;;;0.80;0.70;;;3.40;99.90;;;;;;4968516;28;20221;-76
2021/01/19 06:00:42;;;;;;;0.63;0.60;;;3.30;99.90;;;;;;4974702;28;20205;-77
2021/01/19 06:03:17;;;;;;;0.63;0.63;;;3.40;99.90;;;;;;4976162;28;20181;-80
2021/01/19 06:05:44;;;;;;;1.00;0.60;;;3.30;99.90;;;;;;4967853;28;20210;-77
2021/01/19 06:08:11;;;;;;;0.53;0.50;;;3.40;99.90;;;;;;4960321;28;20259;-77
2021/01/19 06:10:40;;;;;;;0.70;0.70;;;3.30;99.90;;;;;;4969274;28;20213;-77
2021/01/19 06:13:17;;;;;;;0.70;0.70;;;3.30;99.90;;;;;;4968371;28;20188;-77
2021/01/19 06:15:42;;;;;;;0.83;0.80;;;3.40;99.90;;;;;;4969492;28;20192;-77
2021/01/19 06:18:08;;;;;;;0.60;0.60;;;3.40;99.90;;;;;;4969058;28;20188;-76
2021/01/19 06:20:41;;;;;;;1.87;0.80;;;3.30;99.90;;;;;;4967852;28;20213;-77
2021/01/19 06:23:07;;;;;;;0.70;0.67;;;3.30;99.90;;;;;;4967815;28;20192;-77
2021/01/19 06:25:32;;;;;;;0.77;0.70;;;3.40;99.90;;;;;;4969222;28;20217;-78
2021/01/19 06:28:07;;;;;;;1.33;1.10;;;3.60;99.90;;;;;;4968163;28;20185;-80
2021/01/19 06:30:33;;;;;;;1.53;0.83;;;3.60;99.90;;;;;;4969049;28;20681;-80
2021/01/19 06:33:01;;;;;;;0.63;0.63;;;3.70;99.90;;;;;;4969649;28;20181;-76
2021/01/19 06:35:26;;;;;;;1.10;1.00;;;3.50;99.90;;;;;;4968299;28;21474;-76
2021/01/19 06:37:53;;;;;;;0.63;0.63;;;3.70;99.90;;;;;;4969694;28;20265;-78
2021/01/19 06:40:24;;;;;;;0.97;0.70;;;3.70;99.90;;;;;;4966958;28;20635;-77
2021/01/19 06:43:00;;;;;;;1.00;0.87;;;3.70;99.90;;;;;;4976103;28;20188;-79
2021/01/19 06:45:26;;;;;;;0.80;0.80;;;3.70;99.90;;;;;;4967679;28;20212;-75
2021/01/19 06:47:53;;;;;;;0.60;0.60;;;3.70;99.90;;;;;;4967875;28;20196;-79
2021/01/19 06:50:20;;;;;;;0.83;0.70;;;3.80;99.90;;;;;;4968099;28;20223;-77
2021/01/19 06:53:14;;;;;;;3.17;1.20;;;3.70;99.90;;;;;;4973232;28;20205;-76
2021/01/19 06:56:05;;;;;;;0.67;0.63;;;3.80;99.90;;;;;;4968281;28;20563;-78
2021/01/19 06:58:50;;;;;;;0.60;0.60;;;3.80;99.90;;;;;;4966564;28;20234;-77
2021/01/19 07:01:26;;;;;;;1.50;1.07;;;3.80;99.90;;;;;;4959389;28;20215;-77
2021/01/19 07:04:24;;;;;;;1.53;0.60;;;3.80;99.90;;;;;;4967891;28;20204;-75
2021/01/19 07:06:52;;;;;;;0.90;0.70;;;3.70;99.90;;;;;;4982470;28;21145;-76
2021/01/19 07:09:49;;;;;;;0.37;0.37;;;3.80;99.90;;;;;;4967711;28;20207;-78
2021/01/19 07:12:20;;;;;;;0.40;0.40;;;3.80;99.90;;;;;;4958698;28;20611;-78
2021/01/19 07:15:14;;;;;;;0.90;0.73;;;3.90;99.90;;;;;;4966310;28;20189;-77
2021/01/19 07:18:03;;;;;;;0.90;0.80;;;3.70;99.90;;;;;;4981190;28;20740;-76
2021/01/19 07:20:32;;;;;;;1.43;0.70;;;3.70;99.90;;;;;;4961734;28;20274;-76
2021/01/19 07:23:09;;;;;;;0.83;0.70;;;3.70;99.90;;;;;;4966400;28;20185;-77
2021/01/19 07:25:34;;;;;;;0.50;0.50;;;3.80;99.90;;;;;;4957330;28;20408;-76
2021/01/19 07:28:01;;;;;;;0.40;0.33;;;3.80;99.90;;;;;;4966266;28;20782;-77
2021/01/19 07:30:28;;;;;;;0.90;0.50;;;3.80;99.90;;;;;;4964944;28;20293;-76
2021/01/19 07:32:56;;;;;;;0.60;0.50;;;3.70;99.90;;;;;;4955257;28;20287;-77
2021/01/19 07:35:26;;;;;;;0.40;0.40;;;3.80;99.90;;;;;;4966630;28;20643;-77
2021/01/19 07:37:58;;;;;;;0.53;0.40;;;3.90;99.90;;;;;;4964440;28;20188;-75
2021/01/19 07:40:25;;;;;;;0.40;0.40;;;3.90;99.90;;;;;;4972330;28;20283;-77
2021/01/19 07:42:51;;;;;;;2.07;0.80;;;3.90;99.90;;;;;;4980851;28;20296;-76
2021/01/19 07:45:33;;;;;;;0.57;0.57;;;3.90;99.90;;;;;;4965912;28;20220;-77
2021/01/19 07:48:06;;;;;;;4.67;2.07;;;3.90;99.90;;;;;;4965572;28;20181;-78
2021/01/19 07:50:40;;;;;;;0.67;0.67;;;3.90;99.90;;;;;;4964885;28;20196;-78
2021/01/19 07:53:07;;;;;;;0.60;0.60;;;3.90;99.90;;;;;;4963633;28;20287;-76
2021/01/19 07:55:41;;;;;;;1.37;0.90;;;4.00;99.90;;;;;;4965246;28;20340;-78
2021/01/19 07:58:17;;;;;;;0.50;0.50;;;4.00;99.90;;;;;;4980384;28;20192;-79
2021/01/19 08:00:43;;;;;;;0.50;0.50;;;3.90;99.90;;;;;;4979785;28;20298;-77
2021/01/19 08:03:09;;;;;;;0.63;0.63;;;4.00;99.90;;;;;;4971961;28;20586;-77
2021/01/19 08:05:36;;;;;;;0.90;0.57;;;4.00;99.90;;;;;;4964413;28;20611;-77
2021/01/19 08:08:15;;;;;;;0.33;0.30;;;4.00;99.90;;;;;;4966262;28;20208;-79
2021/01/19 08:10:56;;;;;;;0.97;0.60;;;4.00;99.90;;;;;;4963952;28;20200;-78
2021/01/19 08:13:22;;;;;;;1.20;0.63;;;4.00;99.90;;;;;;4972594;28;20332;-78
2021/01/19 08:16:03;;;;;;;0.80;0.50;;;4.00;99.90;;;;;;4965021;28;20269;-76
2021/01/19 08:18:39;;;;;;;0.60;0.43;;;4.00;99.90;;;;;;4967606;28;20216;-78
2021/01/19 08:21:10;;;;;;;0.70;0.70;;;3.90;99.90;;;;;;4974382;28;20204;-80
2021/01/19 08:23:36;;;;;;;1.33;0.53;;;3.90;99.90;;;;;;4967497;28;20181;-80
2021/01/19 08:26:06;;;;;;;1.43;0.47;;;3.90;99.90;;;;;;4966238;28;20596;-78
2021/01/19 08:28:32;;;;;;;1.63;1.27;;;3.90;99.90;;;;;;4968398;28;20556;-80
2021/01/19 08:30:58;;;;;;;1.50;0.40;;;3.80;99.90;;;;;;4967840;28;20208;-76
2021/01/19 08:33:25;;;;;;;0.40;0.40;;;3.80;99.90;;;;;;4968090;28;20180;-76
2021/01/19 08:35:51;;;;;;;2.40;1.00;;;3.70;99.90;;;;;;4966465;28;20192;-79
2021/01/19 08:38:23;;;;;;;3.17;0.60;;;3.80;99.90;;;;;;4973390;28;20181;-80
2021/01/19 08:40:50;;;;;;;0.40;0.40;;;3.80;99.90;;;;;;4964682;28;20208;-79
2021/01/19 08:43:16;;;;;;;0.50;0.50;;;3.70;99.90;;;;;;4967421;28;20193;-78
2021/01/19 08:45:41;;;;;;;0.50;0.50;;;3.70;99.90;;;;;;4965827;28;20309;-77
2021/01/19 08:48:11;;;;;;;0.47;0.47;;;3.60;99.90;;;;;;4965748;28;20203;-80
2021/01/19 08:50:42;;;;;;;0.30;0.30;;;3.70;99.90;;;;;;4966710;28;20953;-79
2021/01/19 08:53:12;;;;;;;1.27;0.90;;;3.60;99.90;;;;;;4964690;28;20176;-77
2021/01/19 08:55:39;;;;;;;0.60;0.60;;;3.60;99.90;;;;;;4980400;28;20564;-77
2021/01/19 08:58:06;;;;;;;1.43;0.30;;;3.70;99.90;;;;;;4966754;28;20185;-79
2021/01/19 09:00:36;;;;;;;1.97;0.77;;;3.70;99.90;;;;;;4955981;28;20263;-80
2021/01/19 09:03:28;;;;;;;0.40;0.40;;;3.70;99.90;;;;;;4965182;28;20184;-79
2021/01/19 09:06:00;;;;;;;0.40;0.40;;;3.60;99.90;;;;;;4962057;28;20248;-78
2021/01/19 09:08:28;;;;;;;0.20;0.20;;;3.70;99.90;;;;;;4962392;28;20180;-78
2021/01/19 09:11:03;;;;;;;0.30;0.30;;;3.60;99.90;;;;;;4964876;28;20192;-78
2021/01/19 09:13:31;;;;;;;0.40;0.40;;;3.70;99.90;;;;;;4964235;28;20188;-80
2021/01/19 09:15:57;;;;;;;1.77;1.47;;;3.70;99.90;;;;;;4964929;28;20181;-78
2021/01/19 09:18:24;;;;;;;0.30;0.30;;;3.60;99.90;;;;;;4964502;28;20560;-76
2021/01/19 09:21:00;;;;;;;0.37;0.37;;;3.70;99.90;;;;;;4964255;28;20209;-79
2021/01/19 09:23:33;;;;;;;0.20;0.20;;;3.80;99.90;;;;;;4961977;28;20231;-78
2021/01/19 09:26:05;;;;;;;0.63;0.40;;;3.70;99.90;;;;;;4957195;28;20212;-78
2021/01/19 09:28:35;;;;;;;0.33;0.33;;;3.70;99.90;;;;;;4965670;28;20193;-77
2021/01/19 09:31:13;;;;;;;1.43;0.90;;;3.90;99.90;;;;;;4963568;28;20601;-78
2021/01/19 09:33:40;;;;;;;0.63;0.47;;;3.80;99.90;;;;;;4957130;28;20192;-80
2021/01/19 09:36:10;;;;;;;0.57;0.30;;;3.80;99.90;;;;;;4963995;28;20189;-80
2021/01/19 09:38:37;;;;;;;0.33;0.23;;;3.80;99.90;;;;;;4964786;28;20599;-77
2021/01/19 09:41:04;;;;;;;0.40;0.23;;;3.80;99.90;;;;;;4971741;28;20205;-78
2021/01/19 09:43:30;;;;;;;0.53;0.53;;;3.90;99.90;;;;;;4961959;28;20211;-77
2021/01/19 09:45:57;;;;;;;0.93;0.40;;;4.00;99.90;;;;;;4963410;28;20205;-78
2021/01/19 09:48:25;;;;;;;0.33;0.33;;;3.90;99.90;;;;;;4955720;28;20181;-79
2021/01/19 09:50:50;;;;;;;0.30;0.20;;;3.90;99.90;;;;;;4962571;28;20291;-75
2021/01/19 09:53:31;;;;;;;2.07;0.87;;;3.90;99.90;;;;;;4965169;28;20272;-79
2021/01/19 09:55:57;;;;;;;1.13;0.53;;;3.90;99.90;;;;;;4968456;28;20252;-79
2021/01/19 09:58:25;;;;;;;0.87;0.53;;;3.90;99.90;;;;;;4968329;28;20292;-77
2021/01/19 10:00:51;;;;;;;0.40;0.40;;;4.00;99.90;;;;;;4966908;28;20201;-79
2021/01/19 10:03:20;;;;;;;0.23;0.23;;;4.00;99.90;;;;;;4969030;28;20196;-81
2021/01/19 10:05:58;;;;;;;0.33;0.20;;;3.90;99.90;;;;;;4974073;28;20877;-80
2021/01/19 10:08:24;;;;;;;0.10;0.10;;;4.00;99.90;;;;;;4977626;28;20181;-79
2021/01/19 10:10:50;;;;;;;0.53;0.47;;;3.90;99.90;;;;;;4966058;28;20933;-79
2021/01/19 10:13:15;;;;;;;0.47;0.33;;;3.90;99.90;;;;;;4968909;28;20635;-76
2021/01/19 10:15:41;;;;;;;0.57;0.33;;;3.90;99.90;;;;;;4967407;28;20332;-78
2021/01/19 10:18:06;;;;;;;1.63;0.57;;;3.90;99.90;;;;;;4959381;28;20279;-77
2021/01/19 10:20:37;;;;;;;0.53;0.40;;;3.80;99.90;;;;;;4965619;28;20208;-76
2021/01/19 10:23:04;;;;;;;0.90;0.50;;;3.80;99.90;;;;;;4968307;28;20177;-78
2021/01/19 10:25:34;;;;;;;0.30;0.20;;;3.80;99.90;;;;;;4966649;28;20599;-76
2021/01/19 10:28:04;;;;;;;0.30;0.30;;;3.80;99.90;;;;;;4967135;28;20705;-77
2021/01/19 10:30:36;;;;;;;0.40;0.30;;;3.80;99.90;;;;;;4968362;28;20212;-79
2021/01/19 10:33:02;;;;;;;0.30;0.30;;;3.70;99.90;;;;;;4964933;28;20177;-78
2021/01/19 10:35:34;;;;;;;0.50;0.40;;;3.70;99.90;;;;;;4965724;28;20192;-77
2021/01/19 10:38:02;;;;;;;0.37;0.30;;;3.70;99.90;;;;;;4958737;28;20189;-79
2021/01/19 10:40:29;;;;;;;0.33;0.33;;;3.60;99.90;;;;;;4967071;28;20197;-78
2021/01/19 10:42:55;;;;;;;0.53;0.43;;;3.60;99.90;;;;;;4968270;28;20193;-79
2021/01/19 10:45:29;;;;;;;0.40;0.40;;;3.60;99.90;;;;;;4968662;28;20200;-80
2021/01/19 10:47:56;;;;;;;1.30;0.43;;;3.60;99.90;;;;;;4968684;28;20191;-78
2021/01/19 10:50:27;;;;;;;0.37;0.37;;;3.60;99.90;;;;;;4966821;28;20197;-77
2021/01/19 10:53:00;;;;;;;0.60;0.50;;;3.60;99.90;;;;;;4964775;28;20216;-79
2021/01/19 10:55:27;;;;;;;0.40;0.40;;;3.60;99.90;;;;;;4964701;28;20193;-75
2021/01/19 10:57:57;;;;;;;0.20;0.20;;;3.60;99.90;;;;;;4965540;28;20184;-79
2021/01/19 11:00:24;;;;;;;0.53;0.53;;;3.70;99.90;;;;;;4967419;28;20201;-79
2021/01/19 11:02:50;;;;;;;0.40;0.40;;;3.70;99.90;;;;;;4963850;28;20292;-74
2021/01/19 11:05:16;;;;;;;0.30;0.30;;;3.80;99.90;;;;;;4962755;28;20290;-73
2021/01/19 11:07:46;;;;;;;0.13;0.13;;;3.80;99.90;;;;;;4967189;28;20177;-78
2021/01/19 11:10:14;;;;;;;0.33;0.33;;;3.90;99.90;;;;;;4967216;28;20690;-79
2021/01/19 11:12:41;;;;;;;0.30;0.30;;;3.90;99.90;;;;;;4968525;28;20196;-78
2021/01/19 11:15:07;;;;;;;0.80;0.30;;;3.90;99.90;;;;;;4967358;28;20305;-76
2021/01/19 11:17:33;;;;;;;0.17;0.17;;;3.90;99.90;;;;;;4959437;28;20181;-77
2021/01/19 11:19:59;;;;;;;0.20;0.20;;;4.00;99.90;;;;;;4966150;28;20215;-77
2021/01/19 11:22:24;;;;;;;0.40;0.40;;;4.00;99.90;;;;;;4965855;28;20189;-79
2021/01/19 11:24:51;;;;;;;0.20;0.20;;;4.00;99.90;;;;;;4973235;28;20212;-79
2021/01/19 11:27:16;;;;;;;0.10;0.10;;;4.00;99.90;;;;;;4968060;28;20200;-80
2021/01/19 11:29:42;;;;;;;0.20;0.20;;;4.10;99.90;;;;;;4973899;28;20275;-79
2021/01/19 11:32:07;;;;;;;0.10;0.10;;;4.10;99.90;;;;;;4964944;28;20189;-77
2021/01/19 11:34:33;;;;;;;0.10;0.10;;;4.10;99.90;;;;;;4965542;28;20622;-77
2021/01/19 11:36:58;;;;;;;0.10;0.10;;;4.10;99.90;;;;;;4975094;28;20197;-79
2021/01/19 11:39:24;;;;;;;0.30;0.30;;;4.10;99.90;;;;;;4964923;28;20181;-78
2021/01/19 11:41:50;;;;;;;0.20;0.20;;;4.20;99.90;;;;;;4965539;28;20193;-77
2021/01/19 11:44:17;;;;;;;0.10;0.10;;;4.20;99.90;;;;;;4963886;28;20216;-77
2021/01/19 11:46:42;;;;;;;0.20;0.20;;;4.20;99.90;;;;;;4964241;28;20217;-79
2021/01/19 11:49:08;;;;;;;0.20;0.20;;;4.20;99.90;;;;;;4964078;28;20188;-77
2021/01/19 11:51:36;;;;;;;0.10;0.10;;;4.20;99.90;;;;;;4963198;28;20216;-81
2021/01/19 11:54:03;;;;;;;0.10;0.10;;;4.20;99.90;;;;;;4966046;28;20189;-75
2021/01/19 11:56:34;;;;;;;0.20;0.20;;;4.30;99.90;;;;;;4964168;28;20933;-79
2021/01/19 11:59:00;;;;;;;0.20;0.20;;;4.30;99.90;;;;;;4965188;28;20198;-78
2021/01/19 12:01:25;;;;;;;0.10;0.10;;;4.20;99.90;;;;;;4965085;28;20339;-76
2021/01/19 12:03:51;;;;;;;0.20;0.20;;;4.30;99.90;;;;;;4965422;28;20650;-75
2021/01/19 12:06:17;;;;;;;0.17;0.17;;;4.30;99.90;;;;;;4965988;28;20213;-76
2021/01/19 12:08:46;;;;;;;0.10;0.10;;;4.30;99.90;;;;;;4963516;28;20280;-78
2021/01/19 12:11:12;;;;;;;0.20;0.20;;;4.30;99.90;;;;;;4963450;28;20215;-78
2021/01/19 12:13:39;;;;;;;0.10;0.10;;;4.40;99.90;;;;;;4965232;28;20189;-79
2021/01/19 12:16:09;;;;;;;0.10;0.10;;;4.50;99.90;;;;;;4963384;28;20193;-78
2021/01/19 12:18:35;;;;;;;0.20;0.20;;;4.50;99.90;;;;;;4966536;28;20193;-80
2021/01/19 12:21:03;;;;;;;0.10;0.10;;;4.50;99.90;;;;;;4963871;28;20201;-76
2021/01/19 12:23:29;;;;;;;0.10;0.10;;;4.50;99.90;;;;;;4966242;28;20920;-79
2021/01/19 12:25:58;;;;;;;0.10;0.10;;;4.50;99.90;;;;;;4964703;28;20216;-76
2021/01/19 12:28:27;;;;;;;0.10;0.10;;;4.50;99.90;;;;;;4971183;28;20232;-76
2021/01/19 12:30:54;;;;;;;0.10;0.10;;;4.50;99.90;;;;;;4963805;28;20287;-80
2021/01/19 12:33:23;;;;;;;0.20;0.20;;;4.50;99.90;;;;;;4964651;28;20181;-79
2021/01/19 12:35:49;;;;;;;0.20;0.20;;;4.50;99.90;;;;;;4956283;28;20283;-79
2021/01/19 12:38:15;;;;;;;0.30;0.30;;;4.50;99.90;;;;;;4964861;28;20213;-77
2021/01/19 12:40:41;;;;;;;0.20;0.20;;;4.60;99.90;;;;;;4964349;28;20286;-77
2021/01/19 12:43:08;;;;;;;0.37;0.20;;;4.60;99.90;;;;;;4965927;28;20188;-77
2021/01/19 12:45:37;;;;;;;0.10;0.10;;;4.60;99.90;;;;;;4963446;28;20212;-77
2021/01/19 12:48:04;;;;;;;0.10;0.10;;;4.50;99.90;;;;;;4963855;28;20195;-79
2021/01/19 12:50:30;;;;;;;0.30;0.30;;;4.60;99.90;;;;;;4976930;28;20219;-73
2021/01/19 12:52:56;;;;;;;0.40;0.40;;;4.50;99.90;;;;;;4958857;28;20185;-74
2021/01/19 12:55:21;;;;;;;0.20;0.20;;;4.70;99.90;;;;;;4961038;28;20271;-74
2021/01/19 12:57:47;;;;;;;0.13;0.13;;;4.60;99.90;;;;;;4959582;28;20189;-74
2021/01/19 13:00:13;;;;;;;0.23;0.23;;;4.60;99.90;;;;;;4961859;28;20936;-77
2021/01/19 13:02:39;;;;;;;0.10;0.10;;;4.60;99.90;;;;;;4981242;28;20193;-78
2021/01/19 13:05:07;;;;;;;0.20;0.20;;;4.60;99.90;;;;;;4966340;28;20216;-76
2021/01/19 13:07:33;;;;;;;1.43;0.30;;;4.60;99.90;;;;;;4963898;28;20196;-76